Time;durP1;ratioP1;P1;durP2;ratioP2;P2;SDS_P1;SDS_P2;PMS_P1;PMS_P2;Temp;Humidity;BMP_temperature;BMP_pressure;BME280_temperature;BME280_humidity;BME280_pressure;Samples;Min_cycle;Max_cycle;Signal;HPM_P1;HPM_P2
2021/08/21 00:02:02;;;;;;;12.80;9.48;;;14.50;99.90;;;;;;5092459;28;20449;-68
2021/08/21 00:04:27;;;;;;;12.85;9.30;;;14.50;99.90;;;;;;5092327;28;20024;-68
2021/08/21 00:06:53;;;;;;;14.00;9.75;;;14.50;99.90;;;;;;5093947;28;20056;-69
2021/08/21 00:09:18;;;;;;;16.17;10.15;;;14.40;99.90;;;;;;5094077;28;20062;-68
2021/08/21 00:11:44;;;;;;;16.02;11.35;;;14.40;99.90;;;;;;5093828;28;20028;-68
2021/08/21 00:14:09;;;;;;;18.25;10.25;;;14.40;99.90;;;;;;5093363;28;20107;-68
2021/08/21 00:16:35;;;;;;;19.40;10.82;;;14.40;99.90;;;;;;5092184;28;20089;-69
2021/08/21 00:19:01;;;;;;;20.98;12.43;;;14.30;99.90;;;;;;5093259;28;20044;-69
2021/08/21 00:21:26;;;;;;;38.20;23.27;;;14.30;99.90;;;;;;5094049;28;20469;-69
2021/08/21 00:23:52;;;;;;;32.08;20.90;;;14.30;99.90;;;;;;5093751;28;20024;-68
2021/08/21 00:26:18;;;;;;;32.85;19.85;;;14.30;99.90;;;;;;5075844;28;20028;-68
2021/08/21 00:28:43;;;;;;;22.65;14.88;;;14.20;99.90;;;;;;5093950;28;20024;-69
2021/08/21 00:31:09;;;;;;;32.90;21.08;;;14.10;99.90;;;;;;5093690;28;20031;-68
2021/08/21 00:33:34;;;;;;;27.88;18.02;;;14.10;99.90;;;;;;5093922;28;20093;-68
2021/08/21 00:36:00;;;;;;;22.42;15.02;;;14.10;99.90;;;;;;5092789;28;20466;-69
2021/08/21 00:38:25;;;;;;;24.58;16.27;;;14.00;99.90;;;;;;5093485;28;20028;-68
2021/08/21 00:40:51;;;;;;;28.35;17.75;;;14.00;99.90;;;;;;5093795;28;20408;-68
2021/08/21 00:43:17;;;;;;;27.20;16.58;;;14.00;99.90;;;;;;5093829;28;20028;-69
2021/08/21 00:45:43;;;;;;;22.17;14.38;;;14.00;99.90;;;;;;5093206;28;20020;-68
2021/08/21 00:48:08;;;;;;;19.63;12.90;;;13.90;99.90;;;;;;5093453;28;20073;-68
2021/08/21 00:50:34;;;;;;;19.10;13.35;;;13.90;99.90;;;;;;5091978;28;20068;-69
2021/08/21 00:53:00;;;;;;;15.48;11.95;;;13.90;99.90;;;;;;5092578;28;20457;-68
2021/08/21 00:55:26;;;;;;;20.10;13.30;;;13.90;99.90;;;;;;5093742;28;20047;-68
2021/08/21 00:57:52;;;;;;;15.45;11.70;;;13.90;99.90;;;;;;5093694;28;20030;-69
2021/08/21 01:00:18;;;;;;;16.33;11.57;;;13.90;99.90;;;;;;5091848;28;20362;-68
2021/08/21 01:02:44;;;;;;;15.65;11.95;;;13.90;99.90;;;;;;5093382;28;20090;-68
2021/08/21 01:05:14;;;;;;;15.55;12.05;;;13.90;99.90;;;;;;5093654;28;20031;-68
2021/08/21 01:07:40;;;;;;;16.48;12.77;;;13.80;99.90;;;;;;5091822;28;20069;-68
2021/08/21 01:10:09;;;;;;;18.15;13.77;;;13.80;99.90;;;;;;5091762;28;20059;-68
2021/08/21 01:12:36;;;;;;;18.65;13.25;;;13.80;99.90;;;;;;5093463;28;20024;-68
2021/08/21 01:15:02;;;;;;;22.05;14.60;;;13.80;99.90;;;;;;5093476;28;20020;-69
2021/08/21 01:17:28;;;;;;;22.60;15.63;;;13.70;99.90;;;;;;5092673;28;20044;-68
2021/08/21 01:19:54;;;;;;;21.48;15.32;;;13.70;99.90;;;;;;5093510;28;20036;-69
2021/08/21 01:22:25;;;;;;;19.65;14.18;;;13.70;99.90;;;;;;5092516;28;20051;-68
2021/08/21 01:24:51;;;;;;;20.40;15.20;;;13.70;99.90;;;;;;5092346;28;20024;-69
2021/08/21 01:27:18;;;;;;;15.65;12.88;;;13.70;99.90;;;;;;5097134;28;20499;-68
2021/08/21 01:29:45;;;;;;;18.67;12.13;;;13.60;99.90;;;;;;5097114;28;20537;-69
2021/08/21 01:32:10;;;;;;;18.38;12.60;;;13.60;99.90;;;;;;5096806;28;20373;-68
2021/08/21 01:34:36;;;;;;;15.50;11.98;;;13.60;99.90;;;;;;5097016;28;20020;-68
2021/08/21 01:37:02;;;;;;;17.58;12.52;;;13.60;99.90;;;;;;5096697;28;20031;-69
2021/08/21 01:39:27;;;;;;;18.02;13.57;;;13.60;99.90;;;;;;5062068;28;20027;-68
2021/08/21 01:41:53;;;;;;;21.95;13.68;;;13.60;99.90;;;;;;5096544;28;20099;-68
2021/08/21 01:44:19;;;;;;;17.48;12.70;;;13.50;99.90;;;;;;5096724;28;20024;-68
2021/08/21 01:46:48;;;;;;;16.10;12.20;;;13.50;99.90;;;;;;5096478;28;20065;-68
2021/08/21 01:49:16;;;;;;;17.63;11.48;;;13.50;99.90;;;;;;5096657;28;20054;-68
2021/08/21 01:51:44;;;;;;;14.73;11.30;;;13.40;99.90;;;;;;5096692;28;20104;-68
2021/08/21 01:54:11;;;;;;;17.90;12.80;;;13.40;99.90;;;;;;5096621;28;20020;-68
2021/08/21 01:56:58;;;;;;;18.73;12.95;;;13.40;99.90;;;;;;5095920;28;20121;-69
2021/08/21 01:59:34;;;;;;;17.17;12.02;;;13.40;99.90;;;;;;5096397;28;20016;-69
2021/08/21 02:02:00;;;;;;;18.10;13.20;;;13.40;99.90;;;;;;5096439;28;20477;-69
2021/08/21 02:04:26;;;;;;;16.52;13.32;;;13.40;99.90;;;;;;5096365;28;20028;-68
2021/08/21 02:06:52;;;;;;;18.13;12.48;;;13.30;99.90;;;;;;5096296;28;20029;-68
2021/08/21 02:09:19;;;;;;;15.98;11.90;;;13.30;99.90;;;;;;5094572;28;20106;-68
2021/08/21 02:11:46;;;;;;;16.02;12.00;;;13.30;99.90;;;;;;5094709;28;20414;-68
2021/08/21 02:14:13;;;;;;;20.67;14.57;;;13.30;99.90;;;;;;5096252;28;20020;-68
2021/08/21 02:16:38;;;;;;;17.27;12.77;;;13.30;99.90;;;;;;5096119;28;20020;-68
2021/08/21 02:19:04;;;;;;;18.48;13.00;;;13.30;99.90;;;;;;5095406;28;20056;-68
2021/08/21 02:21:30;;;;;;;16.73;12.93;;;13.20;99.90;;;;;;5095796;28;20028;-68
2021/08/21 02:23:58;;;;;;;17.50;12.65;;;13.20;99.90;;;;;;5096044;28;20056;-69
2021/08/21 02:26:25;;;;;;;18.63;13.35;;;13.20;99.90;;;;;;5096026;28;20020;-69
2021/08/21 02:28:50;;;;;;;17.90;12.85;;;13.20;99.90;;;;;;5095431;28;20382;-68
2021/08/21 02:31:16;;;;;;;19.55;14.15;;;13.20;99.90;;;;;;5094692;28;20038;-68
2021/08/21 02:33:41;;;;;;;17.85;13.68;;;13.20;99.90;;;;;;5095859;28;20035;-69
2021/08/21 02:36:07;;;;;;;18.42;13.77;;;13.10;99.90;;;;;;5095257;28;20024;-68
2021/08/21 02:38:46;;;;;;;21.95;14.63;;;13.00;99.90;;;;;;5094489;28;20428;-69
2021/08/21 02:41:12;;;;;;;19.15;13.20;;;13.00;99.90;;;;;;5095752;28;20024;-68
2021/08/21 02:43:38;;;;;;;17.60;12.98;;;13.00;99.90;;;;;;5095649;28;20445;-68
2021/08/21 02:46:04;;;;;;;18.33;12.48;;;13.00;99.90;;;;;;5095641;28;20108;-68
2021/08/21 02:48:30;;;;;;;17.52;12.93;;;13.00;99.90;;;;;;5095575;28;20032;-68
2021/08/21 02:50:56;;;;;;;17.30;12.23;;;13.00;99.90;;;;;;5095259;28;20051;-69
2021/08/21 02:53:21;;;;;;;16.85;11.93;;;13.00;99.90;;;;;;5095449;28;20031;-68
2021/08/21 02:55:47;;;;;;;25.15;16.48;;;12.90;99.90;;;;;;5095196;28;20028;-68
2021/08/21 02:58:12;;;;;;;20.90;15.15;;;12.90;99.90;;;;;;5093576;28;20043;-68
2021/08/21 03:00:41;;;;;;;19.25;14.05;;;12.90;99.90;;;;;;5095398;28;20026;-68
2021/08/21 03:03:06;;;;;;;23.33;15.07;;;12.90;99.90;;;;;;5077218;28;20381;-68
2021/08/21 03:05:32;;;;;;;21.38;14.15;;;12.90;99.90;;;;;;5095307;28;20020;-69
2021/08/21 03:07:57;;;;;;;18.00;13.30;;;12.80;99.90;;;;;;5094962;28;20107;-68
2021/08/21 03:10:23;;;;;;;20.58;13.80;;;12.80;99.90;;;;;;5095247;28;20469;-68
2021/08/21 03:12:48;;;;;;;18.23;12.85;;;12.80;99.90;;;;;;5094472;28;20074;-68
2021/08/21 03:15:14;;;;;;;19.05;13.48;;;12.80;99.90;;;;;;5094469;28;20115;-68
2021/08/21 03:17:40;;;;;;;18.23;12.40;;;12.80;99.90;;;;;;5094583;28;20052;-68
2021/08/21 03:20:06;;;;;;;17.98;12.88;;;12.70;99.90;;;;;;5094453;28;20031;-68
2021/08/21 03:22:32;;;;;;;16.30;12.05;;;12.70;99.90;;;;;;5094983;28;20044;-68
2021/08/21 03:24:57;;;;;;;16.50;12.10;;;12.70;99.90;;;;;;5093693;28;20488;-68
2021/08/21 03:27:23;;;;;;;18.55;12.48;;;12.70;99.90;;;;;;5094857;28;20076;-68
2021/08/21 03:29:49;;;;;;;17.40;13.15;;;12.70;99.90;;;;;;5094801;28;20024;-68
2021/08/21 03:32:16;;;;;;;19.15;13.60;;;12.70;99.90;;;;;;5076124;28;20027;-68
2021/08/21 03:34:43;;;;;;;22.55;16.85;;;12.70;99.90;;;;;;5094476;28;20027;-68
2021/08/21 03:37:09;;;;;;;19.77;14.48;;;12.70;99.90;;;;;;5094441;28;20093;-68
2021/08/21 03:39:34;;;;;;;19.90;14.15;;;12.60;99.90;;;;;;5094595;28;20082;-68
2021/08/21 03:42:00;;;;;;;27.08;17.17;;;12.60;99.90;;;;;;5094349;28;20380;-68
2021/08/21 03:44:25;;;;;;;20.27;14.68;;;12.60;99.90;;;;;;5093267;28;20024;-68
2021/08/21 03:46:51;;;;;;;31.20;19.13;;;12.50;99.90;;;;;;5092658;28;20020;-68
2021/08/21 03:49:16;;;;;;;23.20;15.52;;;12.50;99.90;;;;;;5093759;28;20035;-68
2021/08/21 03:51:42;;;;;;;22.95;15.50;;;12.50;99.90;;;;;;5094428;28;20024;-68
2021/08/21 03:54:08;;;;;;;27.52;17.30;;;12.40;99.90;;;;;;5092583;28;20024;-68
2021/08/21 03:56:33;;;;;;;31.35;18.08;;;12.50;99.90;;;;;;5092927;28;20143;-68
2021/08/21 03:58:59;;;;;;;24.55;15.98;;;12.50;99.90;;;;;;5092858;28;20462;-68
2021/08/21 04:01:24;;;;;;;20.70;14.60;;;12.50;99.90;;;;;;5093814;28;20021;-68
2021/08/21 04:03:50;;;;;;;20.20;13.65;;;12.50;99.90;;;;;;5092500;28;20530;-68
2021/08/21 04:06:16;;;;;;;17.52;12.85;;;12.50;99.90;;;;;;5094289;28;20077;-68
2021/08/21 04:08:42;;;;;;;20.17;13.85;;;12.50;99.90;;;;;;5093985;28;20024;-68
2021/08/21 04:11:07;;;;;;;18.80;13.15;;;12.40;99.90;;;;;;5093043;28;20031;-68
2021/08/21 04:13:33;;;;;;;20.10;14.40;;;12.40;99.90;;;;;;5093947;28;20039;-68
2021/08/21 04:15:59;;;;;;;21.35;15.07;;;12.40;99.90;;;;;;5092989;28;20029;-68
2021/08/21 04:18:24;;;;;;;21.98;15.43;;;12.40;99.90;;;;;;5093523;28;20438;-68
2021/08/21 04:20:50;;;;;;;21.52;15.52;;;12.40;99.90;;;;;;5092338;28;20115;-68
2021/08/21 04:23:15;;;;;;;21.92;15.02;;;12.40;99.90;;;;;;5094092;28;20027;-68
2021/08/21 04:25:41;;;;;;;20.38;13.90;;;12.40;99.90;;;;;;5092935;28;20373;-68
2021/08/21 04:28:06;;;;;;;19.23;14.32;;;12.40;99.90;;;;;;5094067;28;20027;-68
2021/08/21 04:30:32;;;;;;;18.50;13.52;;;12.40;99.90;;;;;;5094045;28;20077;-68
2021/08/21 04:32:57;;;;;;;25.95;17.13;;;12.40;99.90;;;;;;5094023;28;20020;-68
2021/08/21 04:35:23;;;;;;;22.92;16.50;;;12.40;99.90;;;;;;5094038;28;20111;-68
2021/08/21 04:37:48;;;;;;;24.52;15.82;;;12.40;99.90;;;;;;5075655;28;20020;-68
2021/08/21 04:40:14;;;;;;;22.02;15.35;;;12.40;99.90;;;;;;5093948;28;20028;-68
2021/08/21 04:42:40;;;;;;;26.13;15.75;;;12.50;99.90;;;;;;5093405;28;20024;-68
2021/08/21 04:45:07;;;;;;;26.77;15.93;;;12.50;99.90;;;;;;5093354;28;20059;-68
2021/08/21 04:47:33;;;;;;;26.10;15.95;;;12.40;99.90;;;;;;5093356;28;20062;-68
2021/08/21 04:49:59;;;;;;;21.45;14.48;;;12.50;99.90;;;;;;5093858;28;20032;-68
2021/08/21 04:52:24;;;;;;;23.95;16.25;;;12.50;99.90;;;;;;5093560;28;20385;-68
2021/08/21 04:54:50;;;;;;;20.00;14.32;;;12.60;99.90;;;;;;5093852;28;20100;-68
2021/08/21 04:57:17;;;;;;;21.35;15.00;;;12.70;99.90;;;;;;5093509;28;20125;-69
2021/08/21 04:59:42;;;;;;;26.02;16.25;;;12.80;99.90;;;;;;5093798;28;20058;-68
2021/08/21 05:02:08;;;;;;;20.08;14.00;;;12.80;99.90;;;;;;5097206;28;20024;-69
2021/08/21 05:04:33;;;;;;;23.30;16.23;;;12.90;99.90;;;;;;5097409;28;20020;-68
2021/08/21 05:06:59;;;;;;;23.38;16.02;;;13.00;99.90;;;;;;5097627;28;20381;-69
2021/08/21 05:09:25;;;;;;;27.15;17.25;;;13.10;99.90;;;;;;5078816;28;20131;-69
2021/08/21 05:11:50;;;;;;;29.00;18.42;;;13.30;99.90;;;;;;5097238;28;20024;-69
2021/08/21 05:14:16;;;;;;;24.73;16.40;;;13.40;99.90;;;;;;5096934;28;20024;-68
2021/08/21 05:16:43;;;;;;;22.38;14.40;;;13.50;99.90;;;;;;5097434;28;20028;-69
2021/08/21 05:19:23;;;;;;;19.67;14.27;;;13.50;99.90;;;;;;5096594;28;20051;-69
2021/08/21 05:21:51;;;;;;;20.75;15.23;;;13.60;99.90;;;;;;5097300;28;20043;-69
2021/08/21 05:24:17;;;;;;;20.52;15.57;;;13.80;99.90;;;;;;5097013;28;20024;-69
2021/08/21 05:26:45;;;;;;;17.48;13.70;;;13.90;99.90;;;;;;5097285;28;20098;-69
2021/08/21 05:29:13;;;;;;;18.00;13.32;;;14.00;99.90;;;;;;5097217;28;20020;-69
2021/08/21 05:31:38;;;;;;;16.85;13.75;;;14.20;99.90;;;;;;5095334;28;20031;-69
2021/08/21 05:34:04;;;;;;;25.40;16.02;;;14.30;99.90;;;;;;5097126;28;20036;-69
2021/08/21 05:36:29;;;;;;;20.15;14.93;;;14.60;99.90;;;;;;5095896;28;20020;-69
2021/08/21 05:38:55;;;;;;;17.50;13.68;;;14.70;99.90;;;;;;5095460;28;20107;-69
2021/08/21 05:41:21;;;;;;;21.33;15.13;;;14.90;99.90;;;;;;5096954;28;20024;-69
2021/08/21 05:43:46;;;;;;;17.17;13.05;;;15.10;99.90;;;;;;5096575;28;20016;-69
2021/08/21 05:46:12;;;;;;;15.23;12.80;;;15.70;99.90;;;;;;5096855;28;20030;-69
2021/08/21 05:48:37;;;;;;;16.48;11.15;;;16.60;99.90;;;;;;5096836;28;20111;-69
2021/08/21 05:51:03;;;;;;;13.07;10.13;;;17.60;99.90;;;;;;5096496;28;20381;-69
2021/08/21 05:53:28;;;;;;;11.55;9.38;;;18.80;99.90;;;;;;5095226;28;20039;-69
2021/08/21 05:55:54;;;;;;;13.13;9.43;;;20.10;99.90;;;;;;5095518;28;20024;-69
2021/08/21 05:58:19;;;;;;;12.10;9.82;;;20.90;99.90;;;;;;5094740;28;20024;-68
2021/08/21 06:00:45;;;;;;;11.52;9.80;;;21.30;99.90;;;;;;5096314;28;20020;-69
2021/08/21 06:03:11;;;;;;;10.10;9.10;;;21.20;99.90;;;;;;5095953;28;20066;-69
2021/08/21 06:05:41;;;;;;;10.55;9.23;;;22.10;99.90;;;;;;5078895;28;20023;-69
2021/08/21 06:08:07;;;;;;;11.57;9.88;;;22.50;99.90;;;;;;5096178;28;20106;-70
2021/08/21 06:10:32;;;;;;;10.30;9.15;;;22.40;99.90;;;;;;5096246;28;20125;-70
2021/08/21 06:12:58;;;;;;;11.20;9.98;;;22.90;99.90;;;;;;5096186;28;20034;-69
2021/08/21 06:15:23;;;;;;;15.27;10.27;;;23.60;99.90;;;;;;5096314;28;20192;-70
2021/08/21 06:17:49;;;;;;;13.50;9.60;;;22.50;99.90;;;;;;5095776;28;20058;-70
2021/08/21 06:20:14;;;;;;;10.77;9.68;;;22.80;99.90;;;;;;5095632;28;20125;-69
2021/08/21 06:22:40;;;;;;;10.27;9.27;;;22.60;99.90;;;;;;5094326;28;20390;-68
2021/08/21 06:25:08;;;;;;;10.73;9.30;;;22.60;99.90;;;;;;5094706;28;20020;-69
2021/08/21 06:27:34;;;;;;;9.73;8.80;;;22.80;99.90;;;;;;5095108;28;20020;-69
2021/08/21 06:30:00;;;;;;;10.35;9.20;;;23.40;99.90;;;;;;5094605;28;20074;-69
2021/08/21 06:32:25;;;;;;;10.55;9.20;;;23.60;99.90;;;;;;5094809;28;20065;-69
2021/08/21 06:34:51;;;;;;;9.77;8.45;;;24.10;99.90;;;;;;5095698;28;20024;-69
2021/08/21 06:37:16;;;;;;;10.50;9.40;;;24.40;99.90;;;;;;5095967;28;20369;-69
2021/08/21 06:39:42;;;;;;;10.85;9.75;;;23.30;99.90;;;;;;5061193;28;20526;-69
2021/08/21 06:42:08;;;;;;;10.43;9.48;;;22.90;99.90;;;;;;5095510;28;20442;-69
2021/08/21 06:44:33;;;;;;;12.20;10.38;;;22.20;99.90;;;;;;5095471;28;20513;-69
2021/08/21 06:46:59;;;;;;;12.35;10.45;;;21.40;99.90;;;;;;5095483;28;20028;-70
2021/08/21 06:49:25;;;;;;;11.25;10.13;;;20.90;99.90;;;;;;5095346;28;20055;-69
2021/08/21 06:51:50;;;;;;;12.20;10.93;;;20.50;99.90;;;;;;5094425;28;20065;-69
2021/08/21 06:54:16;;;;;;;12.52;11.25;;;20.60;99.90;;;;;;5094128;28;20491;-69
2021/08/21 06:56:42;;;;;;;12.73;11.43;;;20.10;99.90;;;;;;5093775;28;20521;-69
2021/08/21 06:59:07;;;;;;;12.70;11.40;;;20.30;99.90;;;;;;5095355;28;20032;-69
2021/08/21 07:01:34;;;;;;;14.30;12.43;;;20.20;99.90;;;;;;5095429;28;20028;-69
2021/08/21 07:04:00;;;;;;;15.73;12.05;;;20.10;99.90;;;;;;5076955;28;20123;-69
2021/08/21 07:06:25;;;;;;;14.10;12.18;;;20.10;99.90;;;;;;5094102;28;20517;-69
2021/08/21 07:08:51;;;;;;;16.58;12.85;;;20.00;99.90;;;;;;5094703;28;20022;-69
2021/08/21 07:11:16;;;;;;;16.80;12.23;;;19.70;99.90;;;;;;5094956;28;20039;-69
2021/08/21 07:13:44;;;;;;;17.60;12.20;;;19.80;99.90;;;;;;5093328;28;20020;-69
2021/08/21 07:16:10;;;;;;;14.68;12.63;;;20.10;99.90;;;;;;5095125;28;20048;-69
2021/08/21 07:18:35;;;;;;;14.85;11.52;;;20.10;99.90;;;;;;5095230;28;20076;-69
2021/08/21 07:21:01;;;;;;;14.40;12.73;;;20.20;99.90;;;;;;5093614;28;20450;-69
2021/08/21 07:23:26;;;;;;;15.70;12.43;;;20.10;99.90;;;;;;5094301;28;20016;-69
2021/08/21 07:25:52;;;;;;;15.05;11.88;;;20.30;99.90;;;;;;5094962;28;20113;-69
2021/08/21 07:28:17;;;;;;;17.77;12.85;;;20.10;99.90;;;;;;5094900;28;20488;-69
2021/08/21 07:30:43;;;;;;;19.58;13.35;;;20.30;99.90;;;;;;5093072;28;20049;-69
2021/08/21 07:33:08;;;;;;;21.88;12.95;;;20.10;99.90;;;;;;5094825;28;20028;-69
2021/08/21 07:35:34;;;;;;;14.82;12.20;;;20.60;99.90;;;;;;5094792;28;20059;-69
2021/08/21 07:37:59;;;;;;;18.15;13.23;;;21.10;99.90;;;;;;5094402;28;20024;-69
2021/08/21 07:40:25;;;;;;;17.20;13.60;;;21.40;99.90;;;;;;5094402;28;20040;-69
2021/08/21 07:42:50;;;;;;;18.60;13.65;;;21.10;99.90;;;;;;5093463;28;20056;-69
2021/08/21 07:45:16;;;;;;;15.25;12.40;;;21.00;99.90;;;;;;5094554;28;20034;-69
2021/08/21 07:47:42;;;;;;;14.63;12.10;;;21.20;99.90;;;;;;5094067;28;20099;-69
2021/08/21 07:50:08;;;;;;;16.65;12.68;;;21.40;99.90;;;;;;5093991;28;20047;-69
2021/08/21 07:52:34;;;;;;;15.80;13.32;;;21.20;99.90;;;;;;5094236;28;20024;-69
2021/08/21 07:54:59;;;;;;;18.48;13.32;;;21.40;99.90;;;;;;5094202;28;20050;-69
2021/08/21 07:57:25;;;;;;;13.95;12.27;;;21.50;99.90;;;;;;5094166;28;20020;-69
2021/08/21 07:59:50;;;;;;;22.63;15.50;;;21.50;99.90;;;;;;5094047;28;20020;-69
2021/08/21 08:02:16;;;;;;;19.63;15.57;;;21.40;99.90;;;;;;5075802;28;20028;-69
2021/08/21 08:04:41;;;;;;;19.15;14.55;;;21.50;99.90;;;;;;5092889;28;20150;-69
2021/08/21 08:07:07;;;;;;;19.08;13.77;;;21.30;99.90;;;;;;5092456;28;20023;-69
2021/08/21 08:09:33;;;;;;;18.35;13.82;;;21.40;99.90;;;;;;5092791;28;20024;-69
2021/08/21 08:11:58;;;;;;;20.67;15.80;;;21.30;99.90;;;;;;5093671;28;20111;-68
2021/08/21 08:14:24;;;;;;;19.80;14.55;;;21.20;99.90;;;;;;5094201;28;20032;-68
2021/08/21 08:16:50;;;;;;;19.48;15.40;;;21.30;99.90;;;;;;5093995;28;20028;-69
2021/08/21 08:19:15;;;;;;;22.27;16.40;;;21.20;99.90;;;;;;5094131;28;20031;-69
2021/08/21 08:21:41;;;;;;;22.90;17.30;;;21.20;99.90;;;;;;5094131;28;20385;-68
2021/08/21 08:24:06;;;;;;;20.83;17.17;;;21.10;99.90;;;;;;5094155;28;20024;-69
2021/08/21 08:26:32;;;;;;;19.55;16.65;;;21.10;99.90;;;;;;5094050;28;20020;-69
2021/08/21 08:28:57;;;;;;;24.48;17.63;;;21.20;99.90;;;;;;5094034;28;20024;-69
2021/08/21 08:31:23;;;;;;;23.73;18.30;;;21.30;99.90;;;;;;5075391;28;20025;-69
2021/08/21 08:33:48;;;;;;;20.48;16.75;;;20.90;99.90;;;;;;5094222;28;20085;-69
2021/08/21 08:36:14;;;;;;;20.98;16.52;;;21.20;99.90;;;;;;5096728;28;20103;-69
2021/08/21 08:38:40;;;;;;;23.85;16.42;;;21.50;99.90;;;;;;5097845;28;20081;-69
2021/08/21 08:41:10;;;;;;;22.52;16.90;;;21.70;99.90;;;;;;5098128;28;20076;-69
2021/08/21 08:43:35;;;;;;;23.50;18.67;;;21.80;99.90;;;;;;5098087;28;20020;-69
2021/08/21 08:46:02;;;;;;;25.08;18.73;;;21.60;99.90;;;;;;5098045;28;20024;-69
2021/08/21 08:48:28;;;;;;;26.23;19.30;;;21.50;99.90;;;;;;5097972;28;20055;-69
2021/08/21 08:50:55;;;;;;;27.00;19.42;;;21.40;99.90;;;;;;5096507;28;20035;-69
2021/08/21 08:53:20;;;;;;;25.90;18.73;;;21.40;99.90;;;;;;5097898;28;20031;-69
2021/08/21 08:55:46;;;;;;;24.65;19.67;;;21.50;99.90;;;;;;5097564;28;20047;-69
2021/08/21 08:58:12;;;;;;;25.05;17.85;;;21.50;99.90;;;;;;5097748;28;20021;-69
2021/08/21 09:00:38;;;;;;;27.40;19.45;;;21.50;99.90;;;;;;5096315;28;20024;-69
2021/08/21 09:03:04;;;;;;;28.15;18.73;;;21.50;99.90;;;;;;5097442;28;20032;-69
2021/08/21 09:05:40;;;;;;;26.33;17.98;;;22.00;99.90;;;;;;5097426;28;20061;-69
2021/08/21 09:08:06;;;;;;;24.67;18.80;;;22.20;99.90;;;;;;5097602;28;20052;-69
2021/08/21 09:10:34;;;;;;;24.75;18.30;;;22.20;99.90;;;;;;5096156;28;20082;-69
2021/08/21 09:13:11;;;;;;;22.20;18.67;;;22.20;99.90;;;;;;5097553;28;20474;-69
2021/08/21 09:15:38;;;;;;;27.90;19.25;;;22.10;99.90;;;;;;5097224;28;20028;-69
2021/08/21 09:18:09;;;;;;;23.83;17.85;;;22.50;99.90;;;;;;5095384;28;20051;-69
2021/08/21 09:20:52;;;;;;;25.23;18.73;;;22.60;99.90;;;;;;5097129;28;20488;-69
2021/08/21 09:26:14;;;;;;;21.20;16.35;;;22.50;99.90;;;;;;5112093;27;20400;-76
2021/08/21 09:28:42;;;;;;;17.80;15.00;;;23.10;99.90;;;;;;5111461;28;20039;-75
2021/08/21 09:31:13;;;;;;;20.50;16.35;;;23.50;99.90;;;;;;5110536;28;20016;-76
2021/08/21 09:33:41;;;;;;;20.42;15.43;;;24.10;99.90;;;;;;5111032;28;20012;-76
2021/08/21 09:36:12;;;;;;;20.65;15.10;;;24.60;99.90;;;;;;5111133;28;20058;-76
2021/08/21 09:38:37;;;;;;;15.55;13.82;;;25.00;99.90;;;;;;5111148;28;20024;-76
2021/08/21 09:41:06;;;;;;;18.00;13.10;;;24.90;99.90;;;;;;5111608;28;20437;-76
2021/08/21 09:43:36;;;;;;;13.32;9.98;;;24.60;99.90;;;;;;5111354;28;20415;-76
2021/08/21 09:46:19;;;;;;;13.65;11.57;;;24.60;99.90;;;;;;5109830;28;20028;-76
2021/08/21 09:49:08;;;;;;;14.38;11.52;;;25.00;99.90;;;;;;5111609;28;20376;-75
2021/08/21 09:54:19;;;;;;;15.63;8.07;;;25.20;99.90;;;;;;5112176;27;20355;-68
2021/08/21 09:56:53;;;;;;;9.32;7.68;;;25.40;99.90;;;;;;5110366;28;20059;-68
2021/08/21 09:59:36;;;;;;;10.15;7.13;;;25.60;99.90;;;;;;5111572;28;20031;-68
2021/08/21 10:02:05;;;;;;;11.43;8.63;;;25.20;99.90;;;;;;5112302;28;20044;-69
2021/08/21 10:04:31;;;;;;;12.20;9.45;;;24.90;99.90;;;;;;5111746;28;20024;-69
2021/08/21 10:06:57;;;;;;;11.32;8.77;;;24.60;99.90;;;;;;5110167;28;20031;-69
2021/08/21 10:09:24;;;;;;;13.55;9.80;;;24.90;99.90;;;;;;5111319;28;20028;-69
2021/08/21 10:11:52;;;;;;;10.38;7.75;;;24.60;99.90;;;;;;5111525;28;20020;-68
2021/08/21 10:14:19;;;;;;;12.27;8.73;;;25.40;99.90;;;;;;5111278;28;20076;-69
2021/08/21 10:16:46;;;;;;;12.02;8.18;;;25.80;99.90;;;;;;5111264;28;20019;-69
2021/08/21 10:19:12;;;;;;;12.90;8.88;;;26.00;99.90;;;;;;5111134;28;20020;-69
2021/08/21 10:21:39;;;;;;;12.35;10.10;;;26.40;99.90;;;;;;5109568;28;20034;-69
2021/08/21 10:24:05;;;;;;;10.23;8.18;;;26.10;99.90;;;;;;5111420;28;20161;-69
2021/08/21 10:26:36;;;;;;;9.65;8.57;;;26.40;99.90;;;;;;5111326;28;20027;-68
2021/08/21 10:29:10;;;;;;;9.65;8.48;;;26.70;99.90;;;;;;5110674;28;20427;-68
2021/08/21 10:31:40;;;;;;;13.68;8.45;;;27.10;99.90;;;;;;5111221;28;20031;-69
2021/08/21 10:34:09;;;;;;;10.13;7.32;;;26.90;99.90;;;;;;5111096;28;20020;-68
2021/08/21 10:36:56;;;;;;;9.70;8.52;;;27.20;99.90;;;;;;5110527;28;20042;-69
2021/08/21 10:39:25;;;;;;;9.50;7.32;;;26.90;99.90;;;;;;5110536;28;20012;-68
2021/08/21 10:41:54;;;;;;;11.52;9.30;;;27.20;99.90;;;;;;5109136;28;20469;-69
2021/08/21 10:44:41;;;;;;;9.02;8.05;;;26.80;99.90;;;;;;5110951;28;20514;-68
2021/08/21 10:47:08;;;;;;;10.70;8.75;;;27.20;99.90;;;;;;5110326;28;20066;-69
2021/08/21 10:49:43;;;;;;;9.70;8.60;;;27.50;99.90;;;;;;5110863;28;20023;-69
2021/08/21 10:52:49;;;;;;;9.75;8.27;;;27.20;99.90;;;;;;5109317;28;20040;-69
2021/08/21 10:55:19;;;;;;;10.63;7.88;;;27.20;99.90;;;;;;5110174;28;20433;-69
2021/08/21 10:58:13;;;;;;;9.80;7.78;;;27.30;99.90;;;;;;5110717;28;20461;-68
2021/08/21 11:03:30;;;;;;;9.82;6.80;;;27.50;99.90;;;;;;5112098;27;20299;-68
2021/08/21 11:06:07;;;;;;;6.63;5.72;;;27.50;99.90;;;;;;5111622;28;20039;-68
2021/08/21 11:08:55;;;;;;;8.10;6.55;;;27.60;99.90;;;;;;5111559;28;20024;-67
2021/08/21 11:11:41;;;;;;;12.18;6.80;;;27.20;99.90;;;;;;5111736;28;20031;-68
2021/08/21 11:14:26;;;;;;;8.35;5.97;;;27.00;99.90;;;;;;5110223;28;20020;-68
2021/08/21 11:16:57;;;;;;;8.70;6.57;;;26.40;99.90;;;;;;5093303;28;20119;-68
2021/08/21 11:19:44;;;;;;;7.60;5.70;;;26.40;99.90;;;;;;5111370;28;20019;-68
2021/08/21 11:24:57;;;;;;;6.30;5.35;;;26.50;99.90;;;;;;5112138;27;20288;-67
2021/08/21 11:27:28;;;;;;;7.50;5.32;;;26.40;99.90;;;;;;5111844;28;20030;-68
2021/08/21 11:30:12;;;;;;;9.48;5.60;;;26.50;99.90;;;;;;5111557;28;20020;-68
2021/08/21 11:33:03;;;;;;;7.55;4.88;;;26.60;99.90;;;;;;5110750;28;20497;-68
2021/08/21 11:35:31;;;;;;;4.88;4.07;;;26.60;99.90;;;;;;5111159;28;20436;-68
2021/08/21 11:38:01;;;;;;;5.60;3.40;;;26.70;99.90;;;;;;5111426;28;20147;-68
2021/08/21 11:40:44;;;;;;;4.95;3.65;;;27.00;99.90;;;;;;5111382;28;20116;-68
2021/08/21 11:43:16;;;;;;;3.47;2.60;;;27.00;99.90;;;;;;5109675;28;20077;-68
2021/08/21 11:45:43;;;;;;;4.22;3.15;;;27.10;99.90;;;;;;5111264;28;20011;-68
2021/08/21 11:48:09;;;;;;;6.13;4.18;;;27.00;99.90;;;;;;5111800;28;20022;-68
2021/08/21 11:50:37;;;;;;;8.07;4.70;;;27.00;99.90;;;;;;5110873;28;20488;-67
2021/08/21 11:53:06;;;;;;;6.72;4.03;;;26.70;99.90;;;;;;5111082;28;20454;-68
2021/08/21 11:55:33;;;;;;;5.22;3.08;;;27.10;99.90;;;;;;5109870;28;20375;-67
2021/08/21 11:57:59;;;;;;;5.03;3.38;;;27.60;99.90;;;;;;5111293;28;20016;-68
2021/08/21 12:00:28;;;;;;;4.75;3.65;;;27.30;99.90;;;;;;5111250;28;20020;-68
2021/08/21 12:02:59;;;;;;;4.22;3.08;;;27.00;99.90;;;;;;5111170;28;20028;-68
2021/08/21 12:08:23;;;;;;;8.32;3.70;;;27.20;99.90;;;;;;5112211;27;20381;-68
2021/08/21 12:10:59;;;;;;;5.38;3.60;;;26.40;99.90;;;;;;5111310;28;20507;-68
2021/08/21 12:13:32;;;;;;;4.90;3.55;;;26.30;99.90;;;;;;5111752;28;20047;-68
2021/08/21 12:16:08;;;;;;;4.65;3.35;;;26.80;99.90;;;;;;5111183;28;20421;-68
2021/08/21 12:18:36;;;;;;;5.25;3.33;;;26.80;99.90;;;;;;5111693;28;20085;-68
2021/08/21 12:21:03;;;;;;;6.53;3.35;;;27.10;99.90;;;;;;5110219;28;20427;-68
2021/08/21 12:23:29;;;;;;;4.85;3.78;;;27.10;99.90;;;;;;5111638;28;20031;-68
2021/08/21 12:25:57;;;;;;;5.30;3.47;;;27.10;99.90;;;;;;5109962;28;20039;-68
2021/08/21 12:28:25;;;;;;;5.05;4.05;;;27.30;99.90;;;;;;5111537;28;20484;-68
2021/08/21 12:30:54;;;;;;;4.20;3.80;;;27.20;99.90;;;;;;5111220;28;20465;-69
2021/08/21 12:33:26;;;;;;;5.68;4.13;;;27.00;99.60;;;;;;5111108;28;20016;-69
2021/08/21 12:35:51;;;;;;;4.30;3.10;;;26.80;99.90;;;;;;5110220;28;20031;-68
2021/08/21 12:38:19;;;;;;;4.43;3.60;;;26.70;99.90;;;;;;5111262;28;20020;-67
2021/08/21 12:41:04;;;;;;;7.53;3.63;;;26.70;99.90;;;;;;5111008;28;20381;-68
2021/08/21 12:43:30;;;;;;;4.82;3.30;;;26.80;99.90;;;;;;5110184;28;20047;-69
2021/08/21 12:45:55;;;;;;;3.40;3.10;;;26.40;99.90;;;;;;5111121;28;20097;-69
2021/08/21 12:48:24;;;;;;;5.72;3.40;;;26.70;99.90;;;;;;5110899;28;20350;-68